Terminal Aerodrome Forecast
Issued by NWS

Home | Current Version | Previous Version | Text Only | Print | Product List | Glossary On
Versions: 1 2 3 4 5 6 7 8 9 10 11 12 13 14 15
961
FTUS46 KHNX 050520
TAFFAT
TAF
KFAT 050520Z 0506/0606 00000KT 4SM HZ SKC
     FM050900 VRB02KT 3SM BR SCT250
     FM051900 32003KT 6SM HZ SKC=

USA.gov is the U.S. government's official web portal to all federal, state and local government web resources and services.